Terminal Aerodrome Forecast
Issued by NWS

Current Version | Previous Version | Text Only | Print | Product List | Glossary Off
Versions: 1 2 3 4 5 6 7 8 9 10 11 12 13 14 15 16 17 18 19

000
FTUS41 KPBZ 030500
TAFHLG
TAF
KHLG 030520Z 0306/0406 VRB03KT P6SM BKN150
     FM031800 13005KT 5SM -FZRA OVC020
     FM032000 18008KT 2SM -RA BR OVC008
     FM040000 20005KT 2SM -RA BR OVC005 WS020/23045KT=

USA.gov is the U.S. government's official web portal to all federal, state and local government web resources and services.